»·PEaware :: SKW3299 KORD-KFWA

SKW3299 :: KORD-KFWA

FLIGHT INFORMATION

Flight Status: Arrived
Operator:
SkyWest Airlines
More flights by this operator :: More flights under this callsign
Pilot: Adam M. (17337)
Aircraft: CANADAIR CL-600 CRJ-700
(CRJ7)
More flights by this aircraft type
Origin: KORD Chicago-O'Hare Intl
United States
Destination: KFWA Ft Wayne Intl
United States
More flights between these airports :: More routes between these airports
Route: MOBLE ADIME SEWTO
File this flight plan on PilotEdge
Remarks: RMK / SIMBRIEF
Altitude:
(Current/Filed)
21,000ft
Speed:
(Current/Filed)
382kts
Departed: 24-Nov-21 10:49 PM
Arrived: 24-Nov-21 11:23 PM
Distance/Time
Traveled:
136nm/0:34
Distance/Time
To Go:
Arrived

Flight Plot

Page will automatically refresh every two minutes.

Flight plan parsing failed; only flown route is shown


Map Options




Map Legend


Flown Route
Filed Route
Departure Airport
Arrival Airport
Navaid (VOR, NDB)
Fix

Horizontal Profiles

Position Reports

Time Latitude Longitude Heading Altitude Ground
Speed
24-Nov-21 21:34 41.974142 -87.902652 270 675ft 0kts
24-Nov-21 21:35 41.974142 -87.902652 270 675ft 0kts
24-Nov-21 21:36 41.974142 -87.902652 270 675ft 0kts
24-Nov-21 21:37 41.974142 -87.902535 270 675ft 0kts
24-Nov-21 21:38 41.974142 -87.902535 270 675ft 0kts
24-Nov-21 21:39 41.974142 -87.902535 270 675ft 0kts
24-Nov-21 21:40 41.974142 -87.902535 270 675ft 0kts
24-Nov-21 21:41 41.974142 -87.902535 270 675ft 0kts
24-Nov-21 21:41 41.974142 -87.902535 270 675ft 0kts
24-Nov-21 21:43 41.974142 -87.902535 270 675ft 0kts
24-Nov-21 21:44 41.974142 -87.902535 270 675ft 0kts
24-Nov-21 21:45 41.974142 -87.902535 270 675ft 0kts
24-Nov-21 21:46 41.974142 -87.902535 270 675ft 0kts
24-Nov-21 21:46 41.974142 -87.902535 270 675ft 0kts
24-Nov-21 21:48 41.974142 -87.902535 270 675ft 0kts
24-Nov-21 21:49 41.974142 -87.902535 270 675ft 0kts
24-Nov-21 21:50 41.974142 -87.902535 270 675ft 0kts
24-Nov-21 21:50 41.974142 -87.902535 270 675ft 0kts
24-Nov-21 21:51 41.974142 -87.902535 270 675ft 0kts
24-Nov-21 21:52 41.974142 -87.902048 270 675ft 2kts
24-Nov-21 21:54 41.974142 -87.900902 270 675ft 0kts
24-Nov-21 21:55 41.974123 -87.901864 177 675ft 0kts
24-Nov-21 21:55 41.974121 -87.901864 177 675ft 0kts
24-Nov-21 21:56 41.973030 -87.901807 176 675ft 0kts
24-Nov-21 21:57 41.972079 -87.901987 127 675ft 2kts
24-Nov-21 21:58 41.972148 -87.899074 76 675ft 9kts
24-Nov-21 21:59 41.971003 -87.895279 123 675ft 12kts
24-Nov-21 22:00 41.970673 -87.888350 90 675ft 24kts
24-Nov-21 22:01 41.970248 -87.883944 181 675ft 0kts
24-Nov-21 22:02 41.969859 -87.883956 181 675ft 0kts
24-Nov-21 22:03 41.969859 -87.883956 181 675ft 0kts
24-Nov-21 22:04 41.969859 -87.883956 181 675ft 0kts
24-Nov-21 22:05 41.969859 -87.883956 181 675ft 0kts
24-Nov-21 22:06 41.969859 -87.883956 181 675ft 0kts
24-Nov-21 22:07 41.969859 -87.883956 181 675ft 0kts
24-Nov-21 22:08 41.969859 -87.883956 181 675ft 0kts
24-Nov-21 22:09 41.969859 -87.883956 181 675ft 0kts
24-Nov-21 22:10 41.969859 -87.883956 181 675ft 0kts
24-Nov-21 22:11 41.969859 -87.883956 181 675ft 0kts
24-Nov-21 22:12 41.969859 -87.883956 181 675ft 0kts
24-Nov-21 22:13 41.969859 -87.883956 181 675ft 0kts
24-Nov-21 22:14 41.969859 -87.883956 181 675ft 0kts
24-Nov-21 22:15 41.969859 -87.883956 181 675ft 0kts
24-Nov-21 22:16 41.969859 -87.883956 181 675ft 0kts
24-Nov-21 22:17 41.969859 -87.883956 181 675ft 0kts
24-Nov-21 22:18 41.969859 -87.883956 181 675ft 0kts
24-Nov-21 22:19 41.969859 -87.883956 181 675ft 0kts
24-Nov-21 22:20 41.969859 -87.883956 181 675ft 0kts
24-Nov-21 22:21 41.969859 -87.883956 181 675ft 0kts
24-Nov-21 22:22 41.969859 -87.883956 181 675ft 0kts
24-Nov-21 22:23 41.969859 -87.883956 181 675ft 0kts
24-Nov-21 22:24 41.969859 -87.883956 181 675ft 0kts
24-Nov-21 22:25 41.969859 -87.883956 181 675ft 0kts
24-Nov-21 22:26 41.969859 -87.883956 181 675ft 0kts
24-Nov-21 22:27 41.969859 -87.883956 181 675ft 0kts
24-Nov-21 22:28 41.969859 -87.883956 181 675ft 0kts
24-Nov-21 22:29 41.969859 -87.883956 181 675ft 0kts
24-Nov-21 22:30 41.969859 -87.883956 181 675ft 0kts
24-Nov-21 22:31 41.969859 -87.883956 181 675ft 0kts
24-Nov-21 22:32 41.969859 -87.883956 181 675ft 0kts
24-Nov-21 22:33 41.969859 -87.883956 181 675ft 0kts
24-Nov-21 22:34 41.969859 -87.883956 181 675ft 0kts
24-Nov-21 22:35 41.969859 -87.883956 181 675ft 0kts
24-Nov-21 22:36 41.969859 -87.883956 181 675ft 0kts
24-Nov-21 22:37 41.969859 -87.883956 181 675ft 0kts
24-Nov-21 22:38 41.969859 -87.883956 181 675ft 0kts
24-Nov-21 22:39 41.969859 -87.883956 181 675ft 0kts
24-Nov-21 22:40 41.969859 -87.883956 181 675ft 0kts
24-Nov-21 22:41 41.969859 -87.883956 181 675ft 0kts
24-Nov-21 22:42 41.969859 -87.883956 181 675ft 0kts
24-Nov-21 22:43 41.969859 -87.883956 181 675ft 0kts
24-Nov-21 22:44 41.969859 -87.883956 181 675ft 0kts
24-Nov-21 22:45 41.969859 -87.883956 181 675ft 0kts
24-Nov-21 22:46 41.969858 -87.883956 181 675ft 0kts
24-Nov-21 22:47 41.969132 -87.884700 265 675ft 4kts
24-Nov-21 22:48 41.969139 -87.905533 268 949ft 171kts
24-Nov-21 22:49 41.973816 -87.987727 278 3931ft 241kts
24-Nov-21 22:50 42.034226 -88.007377 34 7021ft 316kts
24-Nov-21 22:51 42.034736 -87.902654 120 9703ft 299kts
24-Nov-21 22:52 41.999904 -87.806025 120 12116ft 345kts
24-Nov-21 22:53 41.975327 -87.676098 104 14619ft 376kts
24-Nov-21 22:54 41.964564 -87.533577 98 16891ft 391kts
24-Nov-21 22:55 41.958008 -87.384755 97 19896ft 408kts
24-Nov-21 22:56 41.952006 -87.229839 96 21046ft 428kts
24-Nov-21 22:57 41.946667 -87.068796 94 21050ft 435kts
24-Nov-21 22:58 41.947605 -86.905699 92 21060ft 438kts
24-Nov-21 22:59 41.950188 -86.741238 92 21062ft 439kts
24-Nov-21 23:00 41.952525 -86.577662 92 21060ft 439kts
24-Nov-21 23:01 41.954483 -86.412893 92 21059ft 440kts
24-Nov-21 23:02 41.955369 -86.248729 98 21062ft 437kts
24-Nov-21 23:03 41.924439 -86.093963 117 21075ft 426kts
24-Nov-21 23:04 41.857782 -85.969905 146 19662ft 402kts
24-Nov-21 23:05 41.773501 -85.875419 149 17900ft 390kts
24-Nov-21 23:06 41.690503 -85.785021 149 16133ft 380kts
24-Nov-21 23:07 41.609908 -85.697796 149 14359ft 363kts
24-Nov-21 23:08 41.532450 -85.614515 149 12594ft 352kts
24-Nov-21 23:09 41.450938 -85.529773 149 10977ft 367kts
24-Nov-21 23:10 41.392149 -85.443342 105 10351ft 340kts
24-Nov-21 23:11 41.389437 -85.317933 102 9566ft 328kts
24-Nov-21 23:12 41.364119 -85.205232 113 8865ft 312kts
24-Nov-21 23:13 41.315058 -85.115994 139 7853ft 299kts
24-Nov-21 23:14 41.261715 -85.036488 139 6248ft 280kts
24-Nov-21 23:15 41.199456 -85.013730 200 4678ft 229kts
24-Nov-21 23:16 41.142356 -85.042408 203 3193ft 195kts
24-Nov-21 23:17 41.099667 -85.068009 204 2842ft 153kts
24-Nov-21 23:18 41.061635 -85.091825 199 2870ft 146kts
24-Nov-21 23:19 41.032841 -85.122295 220 2205ft 120kts
24-Nov-21 23:20 41.008723 -85.153237 222 1548ft 120kts
24-Nov-21 23:21 40.985518 -85.183273 222 835ft 113kts
24-Nov-21 23:22 40.979498 -85.192627 314 822ft 7kts
24-Nov-21 23:23 40.983236 -85.188771 43 822ft 21kts
24-Nov-21 23:24 40.986791 -85.190786 312 822ft 17kts
24-Nov-21 23:25 40.987412 -85.189207 87 822ft 0kts
24-Nov-21 23:26 40.987412 -85.189207 87 822ft 0kts
24-Nov-21 23:27 40.987412 -85.189207 87 822ft 0kts
24-Nov-21 23:28 40.987412 -85.189207 87 822ft 0kts
24-Nov-21 23:29 40.987412 -85.189207 87 822ft 0kts
24-Nov-21 23:30 40.987546 -85.180622 222 894ft 114kts
24-Nov-21 23:31 40.987412 -85.189207 87 822ft 0kts
24-Nov-21 23:32 40.987412 -85.189207 87 822ft 0kts
24-Nov-21 23:33 40.987412 -85.189207 87 822ft 0kts

Navigation Log

Ident Type
Flight plan parsing failed, navigation log unavailable